sensor_id;sensor_type;location;lat;lon;timestamp;temperature;humidity
19389;DHT22;9830;41.876;23.474;2024-01-06T00:00:39;0.30;99.90
19389;DHT22;9830;41.876;23.474;2024-01-06T00:03:35;0.30;99.90
19389;DHT22;9830;41.876;23.474;2024-01-06T00:06:37;0.20;99.90
19389;DHT22;9830;41.876;23.474;2024-01-06T00:09:45;0.30;99.90
19389;DHT22;9830;41.876;23.474;2024-01-06T00:12:41;0.30;99.90
19389;DHT22;9830;41.876;23.474;2024-01-06T00:15:37;0.30;99.90
19389;DHT22;9830;41.876;23.474;2024-01-06T00:18:36;0.30;99.90
19389;DHT22;9830;41.876;23.474;2024-01-06T00:21:37;0.20;99.90
19389;DHT22;9830;41.876;23.474;2024-01-06T00:24:27;0.20;99.90
19389;DHT22;9830;41.876;23.474;2024-01-06T00:27:31;0.10;99.90
19389;DHT22;9830;41.876;23.474;2024-01-06T00:30:33;0.10;99.90
19389;DHT22;9830;41.876;23.474;2024-01-06T00:33:50;0.10;99.90
19389;DHT22;9830;41.876;23.474;2024-01-06T00:36:42;0.10;99.90
19389;DHT22;9830;41.876;23.474;2024-01-06T00:39:52;0.10;99.90
19389;DHT22;9830;41.876;23.474;2024-01-06T00:42:43;0.00;99.90
19389;DHT22;9830;41.876;23.474;2024-01-06T00:45:47;0.00;99.90
19389;DHT22;9830;41.876;23.474;2024-01-06T00:48:40;0.00;99.90
19389;DHT22;9830;41.876;23.474;2024-01-06T00:51:47;-0.10;99.90
19389;DHT22;9830;41.876;23.474;2024-01-06T00:54:55;-0.10;99.90
19389;DHT22;9830;41.876;23.474;2024-01-06T00:58:00;-0.10;99.90
19389;DHT22;9830;41.876;23.474;2024-01-06T01:00:56;-0.20;99.90
19389;DHT22;9830;41.876;23.474;2024-01-06T01:03:52;-0.20;99.90
19389;DHT22;9830;41.876;23.474;2024-01-06T01:07:00;-0.10;99.90
19389;DHT22;9830;41.876;23.474;2024-01-06T01:09:54;-0.10;99.90
19389;DHT22;9830;41.876;23.474;2024-01-06T01:13:06;-0.10;99.90
19389;DHT22;9830;41.876;23.474;2024-01-06T01:16:19;-0.10;99.90
19389;DHT22;9830;41.876;23.474;2024-01-06T01:19:33;-0.10;99.90
19389;DHT22;9830;41.876;23.474;2024-01-06T01:22:29;-0.10;99.90
19389;DHT22;9830;41.876;23.474;2024-01-06T01:25:22;-0.10;99.90
19389;DHT22;9830;41.876;23.474;2024-01-06T01:28:16;-0.10;99.90
19389;DHT22;9830;41.876;23.474;2024-01-06T01:31:06;-0.20;99.90
19389;DHT22;9830;41.876;23.474;2024-01-06T01:33:58;-0.20;99.90
19389;DHT22;9830;41.876;23.474;2024-01-06T01:36:39;-0.20;99.90
19389;DHT22;9830;41.876;23.474;2024-01-06T01:39:27;-0.20;99.90
19389;DHT22;9830;41.876;23.474;2024-01-06T01:42:14;-0.20;99.90
19389;DHT22;9830;41.876;23.474;2024-01-06T01:45:06;-0.10;99.90
19389;DHT22;9830;41.876;23.474;2024-01-06T01:48:00;-0.20;99.90
19389;DHT22;9830;41.876;23.474;2024-01-06T01:50:49;-0.30;99.90
19389;DHT22;9830;41.876;23.474;2024-01-06T01:53:44;-0.30;99.90
19389;DHT22;9830;41.876;23.474;2024-01-06T01:56:39;-0.40;99.90
19389;DHT22;9830;41.876;23.474;2024-01-06T02:00:06;-0.40;99.90
19389;DHT22;9830;41.876;23.474;2024-01-06T02:02:51;-0.40;99.90
19389;DHT22;9830;41.876;23.474;2024-01-06T02:05:39;-0.40;99.90
19389;DHT22;9830;41.876;23.474;2024-01-06T02:08:33;-0.40;99.90
19389;DHT22;9830;41.876;23.474;2024-01-06T02:11:20;-0.40;99.90
19389;DHT22;9830;41.876;23.474;2024-01-06T02:14:23;-0.40;99.90
19389;DHT22;9830;41.876;23.474;2024-01-06T02:17:19;-0.40;99.90
19389;DHT22;9830;41.876;23.474;2024-01-06T02:20:16;-0.40;99.90
19389;DHT22;9830;41.876;23.474;2024-01-06T02:23:12;-0.50;99.90
19389;DHT22;9830;41.876;23.474;2024-01-06T02:26:02;-0.50;99.90
19389;DHT22;9830;41.876;23.474;2024-01-06T02:29:00;-0.50;99.90
19389;DHT22;9830;41.876;23.474;2024-01-06T02:31:50;-0.60;99.90
19389;DHT22;9830;41.876;23.474;2024-01-06T02:34:47;-0.60;99.90
19389;DHT22;9830;41.876;23.474;2024-01-06T02:37:57;-0.50;99.90
19389;DHT22;9830;41.876;23.474;2024-01-06T02:41:03;-0.60;99.90
19389;DHT22;9830;41.876;23.474;2024-01-06T02:43:56;-0.70;99.90
19389;DHT22;9830;41.876;23.474;2024-01-06T02:46:49;-0.70;99.90
19389;DHT22;9830;41.876;23.474;2024-01-06T02:49:36;-0.70;99.90
19389;DHT22;9830;41.876;23.474;2024-01-06T02:52:20;-0.70;99.90
19389;DHT22;9830;41.876;23.474;2024-01-06T02:55:18;-0.70;99.90
19389;DHT22;9830;41.876;23.474;2024-01-06T03:01:13;-0.90;99.90
19389;DHT22;9830;41.876;23.474;2024-01-06T03:07:02;-0.80;99.90
19389;DHT22;9830;41.876;23.474;2024-01-06T03:09:56;-0.80;99.90
19389;DHT22;9830;41.876;23.474;2024-01-06T03:12:54;-0.90;99.90
19389;DHT22;9830;41.876;23.474;2024-01-06T03:15:49;-0.80;99.90
19389;DHT22;9830;41.876;23.474;2024-01-06T03:18:58;-0.80;99.90
19389;DHT22;9830;41.876;23.474;2024-01-06T03:22:00;-0.80;99.90
19389;DHT22;9830;41.876;23.474;2024-01-06T03:24:55;-0.70;99.90
19389;DHT22;9830;41.876;23.474;2024-01-06T03:27:55;-0.70;99.90
19389;DHT22;9830;41.876;23.474;2024-01-06T03:30:53;-0.60;99.90
19389;DHT22;9830;41.876;23.474;2024-01-06T03:33:38;-0.70;99.90
19389;DHT22;9830;41.876;23.474;2024-01-06T03:36:26;-0.70;99.90
19389;DHT22;9830;41.876;23.474;2024-01-06T03:39:20;-0.70;99.90
19389;DHT22;9830;41.876;23.474;2024-01-06T03:42:10;-0.60;99.90
19389;DHT22;9830;41.876;23.474;2024-01-06T03:44:58;-0.60;99.90
19389;DHT22;9830;41.876;23.474;2024-01-06T03:51:07;-0.60;99.90
19389;DHT22;9830;41.876;23.474;2024-01-06T03:53:56;-0.60;99.90
19389;DHT22;9830;41.876;23.474;2024-01-06T03:56:56;-0.60;99.90
19389;DHT22;9830;41.876;23.474;2024-01-06T03:59:48;-0.50;99.90
19389;DHT22;9830;41.876;23.474;2024-01-06T04:02:37;-0.50;99.90
19389;DHT22;9830;41.876;23.474;2024-01-06T04:05:27;-0.50;99.90
19389;DHT22;9830;41.876;23.474;2024-01-06T04:08:15;-0.50;99.90
19389;DHT22;9830;41.876;23.474;2024-01-06T04:11:19;-0.40;99.90
19389;DHT22;9830;41.876;23.474;2024-01-06T04:14:12;-0.40;99.90
19389;DHT22;9830;41.876;23.474;2024-01-06T04:17:00;-0.40;99.90
19389;DHT22;9830;41.876;23.474;2024-01-06T04:19:51;-0.40;99.90
19389;DHT22;9830;41.876;23.474;2024-01-06T04:22:44;-0.40;99.90
19389;DHT22;9830;41.876;23.474;2024-01-06T04:25:29;-0.40;99.90
19389;DHT22;9830;41.876;23.474;2024-01-06T04:28:51;-0.30;99.90
19389;DHT22;9830;41.876;23.474;2024-01-06T04:31:46;-0.30;99.90
19389;DHT22;9830;41.876;23.474;2024-01-06T04:34:31;-0.30;99.90
19389;DHT22;9830;41.876;23.474;2024-01-06T04:40:49;-0.20;99.90
19389;DHT22;9830;41.876;23.474;2024-01-06T04:43:43;-0.20;99.90
19389;DHT22;9830;41.876;23.474;2024-01-06T04:46:32;-0.30;99.90
19389;DHT22;9830;41.876;23.474;2024-01-06T04:53:01;-0.30;99.90
19389;DHT22;9830;41.876;23.474;2024-01-06T04:55:58;-0.40;99.90
19389;DHT22;9830;41.876;23.474;2024-01-06T04:58:52;-0.30;99.90
19389;DHT22;9830;41.876;23.474;2024-01-06T05:01:38;-0.40;99.90
19389;DHT22;9830;41.876;23.474;2024-01-06T05:04:26;-0.40;99.90
19389;DHT22;9830;41.876;23.474;2024-01-06T05:07:36;-0.40;99.90
19389;DHT22;9830;41.876;23.474;2024-01-06T05:11:06;-0.40;99.90
19389;DHT22;9830;41.876;23.474;2024-01-06T05:13:55;-0.40;99.90
19389;DHT22;9830;41.876;23.474;2024-01-06T05:19:52;-0.50;99.90
19389;DHT22;9830;41.876;23.474;2024-01-06T05:22:42;-0.50;99.90
19389;DHT22;9830;41.876;23.474;2024-01-06T05:26:05;-0.50;99.90
19389;DHT22;9830;41.876;23.474;2024-01-06T05:29:01;-0.60;99.90
19389;DHT22;9830;41.876;23.474;2024-01-06T05:32:10;-0.60;99.90
19389;DHT22;9830;41.876;23.474;2024-01-06T05:35:02;-0.60;99.90
19389;DHT22;9830;41.876;23.474;2024-01-06T05:37:54;-0.60;99.90
19389;DHT22;9830;41.876;23.474;2024-01-06T05:40:46;-0.50;99.90
19389;DHT22;9830;41.876;23.474;2024-01-06T05:43:42;-0.50;99.90
19389;DHT22;9830;41.876;23.474;2024-01-06T05:46:55;-0.40;99.90
19389;DHT22;9830;41.876;23.474;2024-01-06T05:49:51;-0.30;99.90
19389;DHT22;9830;41.876;23.474;2024-01-06T05:53:23;-0.20;99.90
19389;DHT22;9830;41.876;23.474;2024-01-06T05:56:18;-0.20;99.90
19389;DHT22;9830;41.876;23.474;2024-01-06T05:59:11;-0.10;99.90
19389;DHT22;9830;41.876;23.474;2024-01-06T06:02:12;0.00;99.90
19389;DHT22;9830;41.876;23.474;2024-01-06T06:05:07;0.00;99.90
19389;DHT22;9830;41.876;23.474;2024-01-06T06:08:09;0.10;99.90
19389;DHT22;9830;41.876;23.474;2024-01-06T06:11:09;0.30;99.90
19389;DHT22;9830;41.876;23.474;2024-01-06T06:17:14;0.50;99.90
19389;DHT22;9830;41.876;23.474;2024-01-06T06:19:59;0.50;99.90
19389;DHT22;9830;41.876;23.474;2024-01-06T06:23:01;0.50;99.90
19389;DHT22;9830;41.876;23.474;2024-01-06T06:26:07;0.60;99.90
19389;DHT22;9830;41.876;23.474;2024-01-06T06:28:57;0.60;99.90
19389;DHT22;9830;41.876;23.474;2024-01-06T06:31:42;0.60;99.90
19389;DHT22;9830;41.876;23.474;2024-01-06T06:34:45;0.60;99.90
19389;DHT22;9830;41.876;23.474;2024-01-06T06:37:43;0.70;99.90
19389;DHT22;9830;41.876;23.474;2024-01-06T06:40:39;0.80;99.90
19389;DHT22;9830;41.876;23.474;2024-01-06T06:43:26;0.80;99.90
19389;DHT22;9830;41.876;23.474;2024-01-06T06:46:18;1.00;99.90
19389;DHT22;9830;41.876;23.474;2024-01-06T06:49:28;1.00;99.90
19389;DHT22;9830;41.876;23.474;2024-01-06T06:52:38;1.20;99.90
19389;DHT22;9830;41.876;23.474;2024-01-06T06:58:40;1.10;99.90
19389;DHT22;9830;41.876;23.474;2024-01-06T07:01:30;1.00;99.90
19389;DHT22;9830;41.876;23.474;2024-01-06T07:04:18;1.10;99.90
19389;DHT22;9830;41.876;23.474;2024-01-06T07:07:17;1.20;99.90
19389;DHT22;9830;41.876;23.474;2024-01-06T07:10:18;1.30;99.90
19389;DHT22;9830;41.876;23.474;2024-01-06T07:13:09;1.40;99.90
19389;DHT22;9830;41.876;23.474;2024-01-06T07:16:34;1.70;99.90
19389;DHT22;9830;41.876;23.474;2024-01-06T07:22:51;1.80;99.90
19389;DHT22;9830;41.876;23.474;2024-01-06T07:25:57;2.20;99.90
19389;DHT22;9830;41.876;23.474;2024-01-06T07:28:43;2.30;99.90
19389;DHT22;9830;41.876;23.474;2024-01-06T07:31:28;2.40;99.90
19389;DHT22;9830;41.876;23.474;2024-01-06T07:34:23;2.60;99.90
19389;DHT22;9830;41.876;23.474;2024-01-06T07:37:29;2.70;99.90
19389;DHT22;9830;41.876;23.474;2024-01-06T07:40:20;3.00;99.90
19389;DHT22;9830;41.876;23.474;2024-01-06T07:43:20;2.90;99.90
19389;DHT22;9830;41.876;23.474;2024-01-06T07:46:22;2.90;99.90
19389;DHT22;9830;41.876;23.474;2024-01-06T07:49:25;3.00;99.90
19389;DHT22;9830;41.876;23.474;2024-01-06T07:55:44;3.30;99.90
19389;DHT22;9830;41.876;23.474;2024-01-06T08:02:00;2.70;99.90
19389;DHT22;9830;41.876;23.474;2024-01-06T08:04:50;2.70;99.90
19389;DHT22;9830;41.876;23.474;2024-01-06T08:07:57;2.90;99.90
19389;DHT22;9830;41.876;23.474;2024-01-06T08:11:06;3.30;99.90
19389;DHT22;9830;41.876;23.474;2024-01-06T08:14:08;3.40;99.90
19389;DHT22;9830;41.876;23.474;2024-01-06T08:17:03;3.70;99.90
19389;DHT22;9830;41.876;23.474;2024-01-06T08:20:14;3.40;99.90
19389;DHT22;9830;41.876;23.474;2024-01-06T08:23:18;3.60;99.90
19389;DHT22;9830;41.876;23.474;2024-01-06T08:26:17;3.40;99.90
19389;DHT22;9830;41.876;23.474;2024-01-06T08:29:09;3.60;99.90
19389;DHT22;9830;41.876;23.474;2024-01-06T08:31:56;3.50;99.90
19389;DHT22;9830;41.876;23.474;2024-01-06T08:34:45;3.40;99.90
19389;DHT22;9830;41.876;23.474;2024-01-06T08:37:57;3.50;99.90
19389;DHT22;9830;41.876;23.474;2024-01-06T08:40:44;3.70;99.90
19389;DHT22;9830;41.876;23.474;2024-01-06T08:43:47;3.80;99.90
19389;DHT22;9830;41.876;23.474;2024-01-06T08:46:43;4.10;99.90
19389;DHT22;9830;41.876;23.474;2024-01-06T08:49:40;4.40;99.90
19389;DHT22;9830;41.876;23.474;2024-01-06T08:52:28;4.70;99.90
19389;DHT22;9830;41.876;23.474;2024-01-06T08:55:29;4.90;99.90
19389;DHT22;9830;41.876;23.474;2024-01-06T09:01:44;5.20;99.90
19389;DHT22;9830;41.876;23.474;2024-01-06T09:04:51;5.30;99.90
19389;DHT22;9830;41.876;23.474;2024-01-06T09:07:42;5.20;99.90
19389;DHT22;9830;41.876;23.474;2024-01-06T09:10:37;4.80;99.90
19389;DHT22;9830;41.876;23.474;2024-01-06T09:13:51;4.70;99.90
19389;DHT22;9830;41.876;23.474;2024-01-06T09:16:49;4.80;99.90
19389;DHT22;9830;41.876;23.474;2024-01-06T09:19:44;4.60;99.90
19389;DHT22;9830;41.876;23.474;2024-01-06T09:22:36;4.50;99.90
19389;DHT22;9830;41.876;23.474;2024-01-06T09:25:24;4.60;99.90
19389;DHT22;9830;41.876;23.474;2024-01-06T09:28:26;4.60;99.90
19389;DHT22;9830;41.876;23.474;2024-01-06T09:31:20;4.40;99.90
19389;DHT22;9830;41.876;23.474;2024-01-06T09:34:24;4.60;99.90
19389;DHT22;9830;41.876;23.474;2024-01-06T09:37:29;4.70;99.90
19389;DHT22;9830;41.876;23.474;2024-01-06T09:40:41;4.90;99.90
19389;DHT22;9830;41.876;23.474;2024-01-06T09:43:36;5.20;99.90
19389;DHT22;9830;41.876;23.474;2024-01-06T09:46:31;5.80;99.90
19389;DHT22;9830;41.876;23.474;2024-01-06T09:49:49;6.50;99.90
19389;DHT22;9830;41.876;23.474;2024-01-06T09:52:53;6.60;99.90
19389;DHT22;9830;41.876;23.474;2024-01-06T09:55:58;6.90;99.90
19389;DHT22;9830;41.876;23.474;2024-01-06T09:59:00;7.20;99.90
19389;DHT22;9830;41.876;23.474;2024-01-06T10:02:06;7.10;99.90
19389;DHT22;9830;41.876;23.474;2024-01-06T10:05:11;7.50;99.90
19389;DHT22;9830;41.876;23.474;2024-01-06T10:08:19;7.50;99.90
19389;DHT22;9830;41.876;23.474;2024-01-06T10:11:41;7.40;99.90
19389;DHT22;9830;41.876;23.474;2024-01-06T10:14:45;7.60;99.90
19389;DHT22;9830;41.876;23.474;2024-01-06T10:18:08;8.00;99.90
19389;DHT22;9830;41.876;23.474;2024-01-06T10:21:10;7.80;99.90
19389;DHT22;9830;41.876;23.474;2024-01-06T10:24:23;8.00;99.90
19389;DHT22;9830;41.876;23.474;2024-01-06T10:27:12;9.80;99.90
19389;DHT22;9830;41.876;23.474;2024-01-06T10:33:35;11.50;99.90
19389;DHT22;9830;41.876;23.474;2024-01-06T10:36:44;10.70;99.90
19389;DHT22;9830;41.876;23.474;2024-01-06T10:39:45;9.90;99.90
19389;DHT22;9830;41.876;23.474;2024-01-06T10:42:36;10.10;99.90
19389;DHT22;9830;41.876;23.474;2024-01-06T10:45:25;10.80;99.90
19389;DHT22;9830;41.876;23.474;2024-01-06T10:48:17;11.20;99.90
19389;DHT22;9830;41.876;23.474;2024-01-06T10:51:19;11.40;99.90
19389;DHT22;9830;41.876;23.474;2024-01-06T10:54:25;11.20;99.90
19389;DHT22;9830;41.876;23.474;2024-01-06T10:57:39;11.00;99.90
19389;DHT22;9830;41.876;23.474;2024-01-06T11:00:34;12.20;99.90
19389;DHT22;9830;41.876;23.474;2024-01-06T11:03:28;12.10;99.90
19389;DHT22;9830;41.876;23.474;2024-01-06T11:06:16;11.70;99.90
19389;DHT22;9830;41.876;23.474;2024-01-06T11:12:14;12.70;99.90
19389;DHT22;9830;41.876;23.474;2024-01-06T11:15:38;11.60;99.90
19389;DHT22;9830;41.876;23.474;2024-01-06T11:21:35;10.20;99.90
19389;DHT22;9830;41.876;23.474;2024-01-06T11:24:32;10.20;99.90
19389;DHT22;9830;41.876;23.474;2024-01-06T11:31:13;10.30;99.90
19389;DHT22;9830;41.876;23.474;2024-01-06T11:34:20;10.40;99.90
19389;DHT22;9830;41.876;23.474;2024-01-06T11:37:14;10.70;99.90
19389;DHT22;9830;41.876;23.474;2024-01-06T11:40:04;10.40;99.90
19389;DHT22;9830;41.876;23.474;2024-01-06T11:43:06;10.10;99.90
19389;DHT22;9830;41.876;23.474;2024-01-06T11:46:04;9.50;99.90
19389;DHT22;9830;41.876;23.474;2024-01-06T11:49:11;9.30;99.90
19389;DHT22;9830;41.876;23.474;2024-01-06T11:52:00;9.20;99.90
19389;DHT22;9830;41.876;23.474;2024-01-06T11:54:56;9.20;99.90
19389;DHT22;9830;41.876;23.474;2024-01-06T11:57:47;9.50;99.90
19389;DHT22;9830;41.876;23.474;2024-01-06T12:01:03;9.90;99.90
19389;DHT22;9830;41.876;23.474;2024-01-06T12:04:04;10.10;99.90
19389;DHT22;9830;41.876;23.474;2024-01-06T12:07:04;10.80;99.90
19389;DHT22;9830;41.876;23.474;2024-01-06T12:10:19;11.20;99.90
19389;DHT22;9830;41.876;23.474;2024-01-06T12:16:37;11.20;99.90
19389;DHT22;9830;41.876;23.474;2024-01-06T12:19:42;10.90;99.90
19389;DHT22;9830;41.876;23.474;2024-01-06T12:22:56;11.00;99.90
19389;DHT22;9830;41.876;23.474;2024-01-06T12:25:50;10.70;99.90
19389;DHT22;9830;41.876;23.474;2024-01-06T12:29:03;10.30;99.90
19389;DHT22;9830;41.876;23.474;2024-01-06T12:32:01;10.00;99.90
19389;DHT22;9830;41.876;23.474;2024-01-06T12:34:51;9.70;99.90
19389;DHT22;9830;41.876;23.474;2024-01-06T12:37:47;9.80;99.90
19389;DHT22;9830;41.876;23.474;2024-01-06T12:40:48;9.90;99.90
19389;DHT22;9830;41.876;23.474;2024-01-06T12:43:47;10.10;99.90
19389;DHT22;9830;41.876;23.474;2024-01-06T12:46:47;10.10;99.90
19389;DHT22;9830;41.876;23.474;2024-01-06T12:49:55;10.20;99.90
19389;DHT22;9830;41.876;23.474;2024-01-06T12:52:49;9.90;99.90
19389;DHT22;9830;41.876;23.474;2024-01-06T12:55:56;9.60;99.90
19389;DHT22;9830;41.876;23.474;2024-01-06T12:58:47;9.60;99.90
19389;DHT22;9830;41.876;23.474;2024-01-06T13:01:46;9.70;99.90
19389;DHT22;9830;41.876;23.474;2024-01-06T13:04:50;9.70;99.90
19389;DHT22;9830;41.876;23.474;2024-01-06T13:07:40;9.80;99.90
19389;DHT22;9830;41.876;23.474;2024-01-06T13:10:34;9.60;99.90
19389;DHT22;9830;41.876;23.474;2024-01-06T13:13:36;9.40;99.90
19389;DHT22;9830;41.876;23.474;2024-01-06T13:16:27;9.30;99.90
19389;DHT22;9830;41.876;23.474;2024-01-06T13:19:20;9.20;99.90
19389;DHT22;9830;41.876;23.474;2024-01-06T13:22:12;9.10;99.90
19389;DHT22;9830;41.876;23.474;2024-01-06T13:25:09;9.00;99.90
19389;DHT22;9830;41.876;23.474;2024-01-06T13:28:11;8.80;99.90
19389;DHT22;9830;41.876;23.474;2024-01-06T13:31:17;8.70;99.90
19389;DHT22;9830;41.876;23.474;2024-01-06T13:34:12;8.60;99.90
19389;DHT22;9830;41.876;23.474;2024-01-06T13:37:27;8.50;99.90
19389;DHT22;9830;41.876;23.474;2024-01-06T13:40:28;8.40;99.90
19389;DHT22;9830;41.876;23.474;2024-01-06T13:43:24;8.50;99.90
19389;DHT22;9830;41.876;23.474;2024-01-06T13:49:19;8.60;99.90
19389;DHT22;9830;41.876;23.474;2024-01-06T13:52:23;8.60;99.90
19389;DHT22;9830;41.876;23.474;2024-01-06T13:55:20;8.60;99.90
19389;DHT22;9830;41.876;23.474;2024-01-06T13:58:21;8.60;99.90
19389;DHT22;9830;41.876;23.474;2024-01-06T14:01:34;8.60;99.90
19389;DHT22;9830;41.876;23.474;2024-01-06T14:04:51;8.40;99.90
19389;DHT22;9830;41.876;23.474;2024-01-06T14:07:45;8.30;99.90
19389;DHT22;9830;41.876;23.474;2024-01-06T14:10:37;8.20;99.90
19389;DHT22;9830;41.876;23.474;2024-01-06T14:13:48;8.10;99.90
19389;DHT22;9830;41.876;23.474;2024-01-06T14:20:00;8.00;99.90
19389;DHT22;9830;41.876;23.474;2024-01-06T14:22:53;8.00;99.90
19389;DHT22;9830;41.876;23.474;2024-01-06T14:25:44;8.00;99.90
19389;DHT22;9830;41.876;23.474;2024-01-06T14:28:50;8.00;99.90
19389;DHT22;9830;41.876;23.474;2024-01-06T14:31:49;8.10;99.90
19389;DHT22;9830;41.876;23.474;2024-01-06T14:34:56;8.20;99.90
19389;DHT22;9830;41.876;23.474;2024-01-06T14:38:08;8.30;99.90
19389;DHT22;9830;41.876;23.474;2024-01-06T14:41:01;8.40;99.90
19389;DHT22;9830;41.876;23.474;2024-01-06T14:44:19;8.60;99.90
19389;DHT22;9830;41.876;23.474;2024-01-06T14:47:15;8.50;99.90
19389;DHT22;9830;41.876;23.474;2024-01-06T14:49:59;8.50;99.90
19389;DHT22;9830;41.876;23.474;2024-01-06T14:52:49;8.50;99.90
19389;DHT22;9830;41.876;23.474;2024-01-06T14:55:51;8.50;99.90
19389;DHT22;9830;41.876;23.474;2024-01-06T14:58:42;8.50;99.90
19389;DHT22;9830;41.876;23.474;2024-01-06T15:01:48;8.40;99.90
19389;DHT22;9830;41.876;23.474;2024-01-06T15:04:44;8.40;99.90
19389;DHT22;9830;41.876;23.474;2024-01-06T15:07:35;8.50;99.90
19389;DHT22;9830;41.876;23.474;2024-01-06T15:10:49;8.50;99.90
19389;DHT22;9830;41.876;23.474;2024-01-06T15:13:39;8.50;99.90
19389;DHT22;9830;41.876;23.474;2024-01-06T15:16:40;8.40;99.90
19389;DHT22;9830;41.876;23.474;2024-01-06T15:23:13;8.40;99.90
19389;DHT22;9830;41.876;23.474;2024-01-06T15:26:11;8.30;99.90
19389;DHT22;9830;41.876;23.474;2024-01-06T15:29:35;8.30;99.90
19389;DHT22;9830;41.876;23.474;2024-01-06T15:32:20;8.10;99.90
19389;DHT22;9830;41.876;23.474;2024-01-06T15:35:18;8.00;99.90
19389;DHT22;9830;41.876;23.474;2024-01-06T15:38:32;7.90;99.90
19389;DHT22;9830;41.876;23.474;2024-01-06T15:41:22;7.80;99.90
19389;DHT22;9830;41.876;23.474;2024-01-06T15:44:27;7.80;99.90
19389;DHT22;9830;41.876;23.474;2024-01-06T15:47:42;7.70;99.90
19389;DHT22;9830;41.876;23.474;2024-01-06T15:50:41;7.70;99.90
19389;DHT22;9830;41.876;23.474;2024-01-06T15:53:43;7.70;99.90
19389;DHT22;9830;41.876;23.474;2024-01-06T15:56:51;7.80;99.90
19389;DHT22;9830;41.876;23.474;2024-01-06T15:59:59;7.70;99.90
19389;DHT22;9830;41.876;23.474;2024-01-06T16:03:10;7.60;99.90
19389;DHT22;9830;41.876;23.474;2024-01-06T16:06:23;7.60;99.90
19389;DHT22;9830;41.876;23.474;2024-01-06T16:09:43;7.50;99.90
19389;DHT22;9830;41.876;23.474;2024-01-06T16:12:44;7.60;99.90
19389;DHT22;9830;41.876;23.474;2024-01-06T16:15:36;7.50;99.90
19389;DHT22;9830;41.876;23.474;2024-01-06T16:18:31;7.30;99.90
19389;DHT22;9830;41.876;23.474;2024-01-06T16:21:40;7.20;99.90
19389;DHT22;9830;41.876;23.474;2024-01-06T16:24:45;7.00;99.90
19389;DHT22;9830;41.876;23.474;2024-01-06T16:27:42;7.10;99.90
19389;DHT22;9830;41.876;23.474;2024-01-06T16:30:43;7.00;99.90
19389;DHT22;9830;41.876;23.474;2024-01-06T16:33:39;7.10;99.90
19389;DHT22;9830;41.876;23.474;2024-01-06T16:36:26;7.10;99.90
19389;DHT22;9830;41.876;23.474;2024-01-06T16:39:21;7.10;99.90
19389;DHT22;9830;41.876;23.474;2024-01-06T16:42:12;7.10;99.90
19389;DHT22;9830;41.876;23.474;2024-01-06T16:45:14;7.30;99.90
19389;DHT22;9830;41.876;23.474;2024-01-06T16:48:13;7.30;99.90
19389;DHT22;9830;41.876;23.474;2024-01-06T16:51:10;7.30;99.90
19389;DHT22;9830;41.876;23.474;2024-01-06T16:54:15;7.50;99.90
19389;DHT22;9830;41.876;23.474;2024-01-06T16:57:14;7.70;99.90
19389;DHT22;9830;41.876;23.474;2024-01-06T17:00:01;7.80;99.90
19389;DHT22;9830;41.876;23.474;2024-01-06T17:02:55;7.80;99.90
19389;DHT22;9830;41.876;23.474;2024-01-06T17:05:45;7.80;99.90
19389;DHT22;9830;41.876;23.474;2024-01-06T17:08:56;7.80;99.90
19389;DHT22;9830;41.876;23.474;2024-01-06T17:12:07;7.70;99.90
19389;DHT22;9830;41.876;23.474;2024-01-06T17:14:55;7.60;99.90
19389;DHT22;9830;41.876;23.474;2024-01-06T17:17:51;7.50;99.90
19389;DHT22;9830;41.876;23.474;2024-01-06T17:20:37;7.50;99.90
19389;DHT22;9830;41.876;23.474;2024-01-06T17:23:36;7.40;99.90
19389;DHT22;9830;41.876;23.474;2024-01-06T17:26:28;7.40;99.90
19389;DHT22;9830;41.876;23.474;2024-01-06T17:29:25;7.20;99.90
19389;DHT22;9830;41.876;23.474;2024-01-06T17:32:33;7.00;99.90
19389;DHT22;9830;41.876;23.474;2024-01-06T17:35:27;6.80;99.90
19389;DHT22;9830;41.876;23.474;2024-01-06T17:41:36;6.40;99.90
19389;DHT22;9830;41.876;23.474;2024-01-06T17:44:26;6.30;99.90
19389;DHT22;9830;41.876;23.474;2024-01-06T17:47:38;6.00;99.90
19389;DHT22;9830;41.876;23.474;2024-01-06T17:50:40;5.90;99.90
19389;DHT22;9830;41.876;23.474;2024-01-06T17:53:26;5.70;99.90
19389;DHT22;9830;41.876;23.474;2024-01-06T17:56:14;5.60;99.90
19389;DHT22;9830;41.876;23.474;2024-01-06T17:59:07;5.50;99.90
19389;DHT22;9830;41.876;23.474;2024-01-06T18:02:16;5.40;99.90
19389;DHT22;9830;41.876;23.474;2024-01-06T18:05:19;5.30;99.90
19389;DHT22;9830;41.876;23.474;2024-01-06T18:08:17;5.20;99.90
19389;DHT22;9830;41.876;23.474;2024-01-06T18:11:14;5.10;99.90
19389;DHT22;9830;41.876;23.474;2024-01-06T18:14:19;5.10;99.90
19389;DHT22;9830;41.876;23.474;2024-01-06T18:17:15;5.00;99.90
19389;DHT22;9830;41.876;23.474;2024-01-06T18:20:07;4.90;99.90
19389;DHT22;9830;41.876;23.474;2024-01-06T18:23:08;5.00;99.90
19389;DHT22;9830;41.876;23.474;2024-01-06T18:26:09;5.00;99.90
19389;DHT22;9830;41.876;23.474;2024-01-06T18:29:13;5.00;99.90
19389;DHT22;9830;41.876;23.474;2024-01-06T18:32:34;5.00;99.90
19389;DHT22;9830;41.876;23.474;2024-01-06T18:35:49;5.00;99.90
19389;DHT22;9830;41.876;23.474;2024-01-06T18:38:47;5.00;99.90
19389;DHT22;9830;41.876;23.474;2024-01-06T18:41:49;5.10;99.90
19389;DHT22;9830;41.876;23.474;2024-01-06T18:44:54;5.40;99.90
19389;DHT22;9830;41.876;23.474;2024-01-06T18:47:51;5.50;99.90
19389;DHT22;9830;41.876;23.474;2024-01-06T18:50:51;5.50;99.90
19389;DHT22;9830;41.876;23.474;2024-01-06T18:53:46;5.50;99.90
19389;DHT22;9830;41.876;23.474;2024-01-06T18:56:31;5.50;99.90
19389;DHT22;9830;41.876;23.474;2024-01-06T18:59:20;5.50;99.90
19389;DHT22;9830;41.876;23.474;2024-01-06T19:02:13;5.60;99.90
19389;DHT22;9830;41.876;23.474;2024-01-06T19:05:05;5.60;99.90
19389;DHT22;9830;41.876;23.474;2024-01-06T19:07:55;5.60;99.90
19389;DHT22;9830;41.876;23.474;2024-01-06T19:10:45;5.50;99.90
19389;DHT22;9830;41.876;23.474;2024-01-06T19:13:38;5.50;99.90
19389;DHT22;9830;41.876;23.474;2024-01-06T19:16:35;5.50;99.90
19389;DHT22;9830;41.876;23.474;2024-01-06T19:19:28;5.40;99.90
19389;DHT22;9830;41.876;23.474;2024-01-06T19:22:34;5.50;99.90
19389;DHT22;9830;41.876;23.474;2024-01-06T19:25:37;5.40;99.90
19389;DHT22;9830;41.876;23.474;2024-01-06T19:28:29;5.40;99.90
19389;DHT22;9830;41.876;23.474;2024-01-06T19:31:21;5.30;99.90
19389;DHT22;9830;41.876;23.474;2024-01-06T19:34:10;5.30;99.90
19389;DHT22;9830;41.876;23.474;2024-01-06T19:37:10;5.40;99.90
19389;DHT22;9830;41.876;23.474;2024-01-06T19:40:00;5.40;99.90
19389;DHT22;9830;41.876;23.474;2024-01-06T19:43:15;5.40;99.90
19389;DHT22;9830;41.876;23.474;2024-01-06T19:46:07;5.40;99.90
19389;DHT22;9830;41.876;23.474;2024-01-06T19:52:08;5.40;99.90
19389;DHT22;9830;41.876;23.474;2024-01-06T19:54:56;5.40;99.90
19389;DHT22;9830;41.876;23.474;2024-01-06T19:58:11;5.40;99.90
19389;DHT22;9830;41.876;23.474;2024-01-06T20:01:09;5.50;99.90
19389;DHT22;9830;41.876;23.474;2024-01-06T20:07:07;5.40;99.90
19389;DHT22;9830;41.876;23.474;2024-01-06T20:10:15;5.50;99.90
19389;DHT22;9830;41.876;23.474;2024-01-06T20:13:48;5.60;99.90